Time;durP1;ratioP1;P1;durP2;ratioP2;P2;SDS_P1;SDS_P2;PMS_P1;PMS_P2;Temp;Humidity;BMP_temperature;BMP_pressure;BME280_temperature;BME280_humidity;BME280_pressure;Samples;Min_cycle;Max_cycle;Signal;HPM_P1;HPM_P2
2023/03/08 06:00:07;;;;;;;;;;;;;;;7.70;65.54;95571.53;5092735;22;1488786;-74
2023/03/08 06:02:10;;;;;;;;;;;;;;;7.89;65.24;95541.72;5154537;22;5750;-75
2023/03/08 06:04:13;;;;;;;;;;;;;;;8.22;64.93;95569.75;5155243;22;5727;-74
2023/03/08 06:06:17;;;;;;;;;;;;;;;8.38;64.40;95568.50;5155310;23;5799;-75
2023/03/08 06:08:20;;;;;;;;;;;;;;;8.49;64.25;95581.00;5153964;23;5750;-74
2023/03/08 06:10:23;;;;;;;;;;;;;;;8.61;64.10;95579.38;5154626;23;6083;-74
2023/03/08 06:12:27;;;;;;;;;;;;;;;8.69;64.13;95576.47;5153179;23;6909;-75
2023/03/08 06:14:30;;;;;;;;;;;;;;;8.80;63.67;95584.72;5155255;22;5719;-75
2023/03/08 06:16:35;;;;;;;;;;;;;;;8.88;63.75;95589.75;5155973;23;5814;-75
2023/03/08 06:18:40;;;;;;;;;;;;;;;8.93;63.51;95566.19;5154366;22;5723;-75
2023/03/08 06:20:43;;;;;;;;;;;;;;;8.96;63.44;95566.59;5154938;22;5731;-75
2023/03/08 06:22:45;;;;;;;;;;;;;;;8.98;63.44;95571.66;5155427;23;5739;-76
2023/03/08 06:24:49;;;;;;;;;;;;;;;9.01;63.43;95552.75;5155278;22;5817;-75
2023/03/08 06:26:55;;;;;;;;;;;;;;;9.07;63.10;95524.75;5155322;22;5737;-76
2023/03/08 06:28:57;;;;;;;;;;;;;;;9.09;63.18;95541.97;5153464;22;5735;-68
2023/03/08 06:31:00;;;;;;;;;;;;;;;9.10;63.24;95564.69;5156015;22;5719;-69
2023/03/08 06:33:05;;;;;;;;;;;;;;;9.14;62.85;95550.03;5155799;23;5835;-69
2023/03/08 06:35:09;;;;;;;;;;;;;;;9.15;62.82;95527.91;5151144;22;5747;-69
2023/03/08 06:37:12;;;;;;;;;;;;;;;9.22;63.02;95572.69;5152024;22;6621;-69
2023/03/08 06:39:15;;;;;;;;;;;;;;;9.20;63.05;95580.84;5153559;22;5836;-69
2023/03/08 06:41:20;;;;;;;;;;;;;;;9.22;63.14;95591.16;5154801;22;5906;-70
2023/03/08 06:43:23;;;;;;;;;;;;;;;9.23;62.78;95577.75;5155342;22;5726;-71
2023/03/08 06:45:26;;;;;;;;;;;;;;;9.25;62.52;95575.72;5154456;23;5922;-71
2023/03/08 06:47:29;;;;;;;;;;;;;;;9.25;62.69;95561.72;5155475;23;5727;-70
2023/03/08 06:49:34;;;;;;;;;;;;;;;9.27;62.56;95578.94;5154691;22;5723;-69
2023/03/08 06:51:37;;;;;;;;;;;;;;;9.27;62.57;95589.50;5155146;22;5782;-69
2023/03/08 06:53:40;;;;;;;;;;;;;;;9.30;62.60;95581.16;5154977;23;6476;-69
2023/03/08 06:55:43;;;;;;;;;;;;;;;9.32;62.70;95579.13;5154839;22;6018;-69
2023/03/08 06:57:46;;;;;;;;;;;;;;;9.34;62.57;95579.72;5152186;22;7120;-69
2023/03/08 06:59:49;;;;;;;;;;;;;;;9.33;62.33;95578.09;5151521;22;5723;-68
2023/03/08 07:01:52;;;;;;;;;;;;;;;9.35;62.59;95593.69;5142816;23;5751;-69
2023/03/08 07:03:55;;;;;;;;;;;;;;;9.33;62.18;95587.84;5145767;23;7739;-70
2023/03/08 07:06:01;;;;;;;;;;;;;;;9.30;62.20;95588.28;5146363;23;6209;-70
2023/03/08 07:08:04;;;;;;;;;;;;;;;9.31;62.23;95598.59;5147369;23;5830;-70
2023/03/08 07:10:09;;;;;;;;;;;;;;;9.31;62.41;95595.97;5148847;23;5869;-70
2023/03/08 07:12:12;;;;;;;;;;;;;;;9.32;62.20;95594.94;5149006;23;5735;-71
2023/03/08 07:14:15;;;;;;;;;;;;;;;9.37;62.32;95604.03;5148946;23;5727;-71
2023/03/08 07:16:18;;;;;;;;;;;;;;;9.38;62.32;95611.72;5145830;23;5818;-70
2023/03/08 07:18:21;;;;;;;;;;;;;;;9.38;62.07;95606.44;5147668;23;5766;-69
2023/03/08 07:20:27;;;;;;;;;;;;;;;9.42;62.18;95615.56;5148082;23;5747;-70
2023/03/08 07:22:32;;;;;;;;;;;;;;;9.45;62.10;95620.41;5148084;23;5830;-71
2023/03/08 07:24:36;;;;;;;;;;;;;;;9.44;62.27;95633.81;5148607;23;5720;-73
2023/03/08 07:26:38;;;;;;;;;;;;;;;9.46;61.94;95629.13;5147845;23;5727;-72
2023/03/08 07:28:41;;;;;;;;;;;;;;;9.50;62.30;95630.31;5149561;23;5735;-72
2023/03/08 07:30:46;;;;;;;;;;;;;;;9.49;62.28;95623.41;5149275;23;5731;-71
2023/03/08 07:32:49;;;;;;;;;;;;;;;9.51;62.05;95624.84;5148753;23;5722;-70
2023/03/08 07:34:52;;;;;;;;;;;;;;;9.53;62.15;95619.34;5148330;23;5751;-71
2023/03/08 07:36:55;;;;;;;;;;;;;;;9.54;62.05;95615.69;5146343;23;5734;-73
2023/03/08 07:39:00;;;;;;;;;;;;;;;9.55;62.06;95623.38;5147428;23;5842;-72
2023/03/08 07:41:03;;;;;;;;;;;;;;;9.58;61.89;95622.13;5149186;23;5751;-72
2023/03/08 07:43:06;;;;;;;;;;;;;;;9.55;62.00;95617.28;5149173;23;5817;-71
2023/03/08 07:45:10;;;;;;;;;;;;;;;9.57;62.00;95621.34;5149394;23;5739;-72
2023/03/08 07:47:14;;;;;;;;;;;;;;;9.56;61.68;95613.63;5147649;23;5742;-72
2023/03/08 07:49:17;;;;;;;;;;;;;;;9.54;61.72;95628.88;5149078;23;5845;-73
2023/03/08 07:51:20;;;;;;;;;;;;;;;9.54;61.69;95618.31;5146632;23;5743;-72
2023/03/08 07:53:23;;;;;;;;;;;;;;;9.56;62.05;95617.09;5148674;23;5818;-74
2023/03/08 07:55:27;;;;;;;;;;;;;;;9.57;61.83;95618.69;5148799;23;5810;-69
2023/03/08 07:57:30;;;;;;;;;;;;;;;9.56;61.70;95625.00;5148433;23;5735;-69
2023/03/08 07:59:34;;;;;;;;;;;;;;;9.56;61.84;95630.28;5147241;23;5674;-70
2023/03/08 08:01:36;;;;;;;;;;;;;;;9.52;61.64;95618.53;5148359;23;5739;-72
2023/03/08 08:03:40;;;;;;;;;;;;;;;9.54;61.86;95629.69;5148294;23;5664;-76
2023/03/08 08:05:43;;;;;;;;;;;;;;;9.57;62.04;95631.06;5148926;23;5633;-75
2023/03/08 08:07:47;;;;;;;;;;;;;;;9.58;61.96;95632.69;5150737;23;5662;-80
2023/03/08 08:09:50;;;;;;;;;;;;;;;9.60;61.85;95630.63;5152585;23;5739;-80
2023/03/08 08:11:54;;;;;;;;;;;;;;;9.59;61.77;95629.84;5151435;23;5731;-71
2023/03/08 08:13:57;;;;;;;;;;;;;;;9.57;62.18;95633.72;5147589;23;5653;-83
2023/03/08 08:16:02;;;;;;;;;;;;;;;9.59;62.24;95624.56;5150087;23;5812;-80
2023/03/08 08:18:05;;;;;;;;;;;;;;;9.59;62.23;95626.38;5123026;23;5782;-75
2023/03/08 08:20:09;;;;;;;;;;;;;;;9.62;62.13;95629.41;5147312;23;5784;-72
2023/03/08 08:22:12;;;;;;;;;;;;;;;9.65;61.77;95635.28;5146936;23;5676;-73
2023/03/08 08:24:15;;;;;;;;;;;;;;;9.66;61.94;95629.00;5148886;23;5733;-69
2023/03/08 08:26:21;;;;;;;;;;;;;;;9.67;61.71;95631.41;5147655;23;5804;-72
2023/03/08 08:28:26;;;;;;;;;;;;;;;9.70;61.81;95630.16;5148804;23;5660;-74
2023/03/08 08:30:30;;;;;;;;;;;;;;;9.73;62.29;95641.09;5148760;23;5742;-68
2023/03/08 08:32:33;;;;;;;;;;;;;;;9.73;61.82;95637.63;5148851;23;5649;-73
2023/03/08 08:34:36;;;;;;;;;;;;;;;9.71;62.29;95642.34;5148010;23;5648;-72
2023/03/08 08:36:38;;;;;;;;;;;;;;;9.76;62.19;95645.97;5147974;23;5794;-73
2023/03/08 08:38:42;;;;;;;;;;;;;;;9.82;62.21;95650.34;5146356;23;6287;-66
2023/03/08 08:40:45;;;;;;;;;;;;;;;9.83;62.14;95638.78;5148348;23;5644;-65
2023/03/08 08:42:51;;;;;;;;;;;;;;;9.86;62.30;95627.81;5147098;23;5667;-65
2023/03/08 08:44:55;;;;;;;;;;;;;;;9.87;62.08;95623.31;5147629;23;6303;-65
2023/03/08 08:46:58;;;;;;;;;;;;;;;9.87;62.20;95620.69;5147513;23;5704;-65
2023/03/08 08:49:04;;;;;;;;;;;;;;;9.89;62.12;95627.34;5148183;23;5740;-65
2023/03/08 08:51:09;;;;;;;;;;;;;;;9.93;62.38;95628.53;5146565;23;5815;-65
2023/03/08 08:53:12;;;;;;;;;;;;;;;9.93;61.91;95630.38;5146887;23;5640;-64
2023/03/08 08:55:15;;;;;;;;;;;;;;;9.92;62.24;95616.34;5148291;23;5735;-64
2023/03/08 08:57:18;;;;;;;;;;;;;;;9.93;62.20;95625.09;5147170;23;5761;-64
2023/03/08 08:59:21;;;;;;;;;;;;;;;9.97;62.08;95633.41;5146735;23;5645;-64
2023/03/08 09:01:28;;;;;;;;;;;;;;;9.99;62.40;95628.69;5147525;23;5652;-65
2023/03/08 09:03:32;;;;;;;;;;;;;;;10.03;62.25;95635.16;5146904;23;5645;-65
2023/03/08 09:05:39;;;;;;;;;;;;;;;10.06;61.76;95643.44;5146846;23;5657;-65
2023/03/08 09:07:42;;;;;;;;;;;;;;;10.07;61.99;95634.47;5147662;23;5743;-65
2023/03/08 09:09:46;;;;;;;;;;;;;;;10.07;62.00;95641.59;5147897;23;5666;-66
2023/03/08 09:11:49;;;;;;;;;;;;;;;10.06;62.16;95629.44;5148317;23;5677;-65
2023/03/08 09:13:57;;;;;;;;;;;;;;;10.07;62.15;95633.69;5147293;23;5673;-71
2023/03/08 09:16:00;;;;;;;;;;;;;;;10.06;62.05;95646.06;5121245;23;5679;-70
2023/03/08 09:18:05;;;;;;;;;;;;;;;10.06;62.14;95634.72;5146816;23;6484;-66
2023/03/08 09:20:11;;;;;;;;;;;;;;;10.07;62.01;95631.03;5146574;23;5835;-66
2023/03/08 09:22:14;;;;;;;;;;;;;;;10.09;61.67;95635.09;5148031;23;5842;-65
2023/03/08 09:24:17;;;;;;;;;;;;;;;10.10;62.16;95630.63;5147957;23;5825;-75
2023/03/08 09:26:20;;;;;;;;;;;;;;;10.12;61.99;95624.09;5148484;23;5822;-69
2023/03/08 09:28:25;;;;;;;;;;;;;;;10.14;62.11;95629.97;5145590;23;5863;-69
2023/03/08 09:30:29;;;;;;;;;;;;;;;10.15;61.91;95620.19;5148752;23;5734;-72
2023/03/08 09:32:33;;;;;;;;;;;;;;;10.16;61.70;95625.25;5148223;23;5720;-70
2023/03/08 09:34:37;;;;;;;;;;;;;;;10.15;62.10;95630.75;5148721;23;5723;-72
2023/03/08 09:36:41;;;;;;;;;;;;;;;10.14;62.13;95637.88;5148347;23;5798;-70
2023/03/08 09:38:46;;;;;;;;;;;;;;;10.14;62.11;95642.34;5147984;23;5802;-72
2023/03/08 09:40:58;;;;;;;;;;;;;;;10.13;62.17;95636.28;5148722;23;5089;-72
2023/03/08 09:43:05;;;;;;;;;;;;;;;10.13;62.08;95632.81;5148174;23;7734;-70
2023/03/08 09:45:17;;;;;;;;;;;;;;;10.16;62.12;95645.59;5149063;23;5735;-68
2023/03/08 09:47:28;;;;;;;;;;;;;;;10.19;62.23;95643.34;5150337;23;5761;-76
2023/03/08 09:49:33;;;;;;;;;;;;;;;10.17;62.12;95641.91;5147299;23;5718;-67
2023/03/08 09:51:45;;;;;;;;;;;;;;;10.17;61.84;95634.78;5149065;23;5726;-68
2023/03/08 09:53:53;;;;;;;;;;;;;;;10.20;62.14;95633.56;5149453;23;5817;-71
2023/03/08 09:56:02;;;;;;;;;;;;;;;10.19;62.26;95637.22;5148336;23;5731;-64
2023/03/08 09:58:16;;;;;;;;;;;;;;;10.22;62.20;95626.28;5147306;23;5813;-64
2023/03/08 10:00:21;;;;;;;;;;;;;;;10.20;61.90;95630.94;5148456;23;5735;-68
2023/03/08 10:02:35;;;;;;;;;;;;;;;10.18;62.07;95636.41;5148501;23;5842;-70
2023/03/08 10:04:51;;;;;;;;;;;;;;;10.19;62.08;95635.41;5146267;23;5730;-69
2023/03/08 10:07:37;;;;;;;;;;;;;;;10.20;61.96;95626.47;5148802;23;5716;-77
2023/03/08 10:09:48;;;;;;;;;;;;;;;10.21;62.43;95627.25;5148274;23;5794;-68
2023/03/08 10:12:03;;;;;;;;;;;;;;;10.20;62.04;95620.38;5148606;23;5722;-66
2023/03/08 10:14:17;;;;;;;;;;;;;;;10.16;62.08;95611.25;5148146;23;5715;-62
2023/03/08 10:16:22;;;;;;;;;;;;;;;10.16;62.47;95617.34;5147144;23;5857;-63
2023/03/08 10:18:32;;;;;;;;;;;;;;;10.19;62.38;95614.28;5147773;23;5801;-62
2023/03/08 10:20:37;;;;;;;;;;;;;;;10.16;62.24;95601.50;5147928;23;6393;-70
2023/03/08 10:22:42;;;;;;;;;;;;;;;10.17;62.47;95604.94;5148188;23;5799;-79
2023/03/08 10:24:50;;;;;;;;;;;;;;;10.11;62.33;95595.28;5145721;23;5671;-70
2023/03/08 10:26:54;;;;;;;;;;;;;;;10.06;62.45;95595.09;5147841;23;5825;-69
2023/03/08 10:28:57;;;;;;;;;;;;;;;10.05;62.63;95596.94;5147048;23;5735;-72
2023/03/08 10:31:03;;;;;;;;;;;;;;;10.07;62.78;95596.72;5147539;23;5767;-66
2023/03/08 10:33:12;;;;;;;;;;;;;;;10.10;62.95;95578.63;5146793;23;5753;-65
2023/03/08 10:35:17;;;;;;;;;;;;;;;10.14;62.74;95584.25;5147595;23;5805;-66
2023/03/08 10:37:21;;;;;;;;;;;;;;;10.18;62.52;95601.28;5149510;23;5756;-67
2023/03/08 10:39:25;;;;;;;;;;;;;;;10.19;62.77;95594.97;5149276;23;6359;-67
2023/03/08 10:41:31;;;;;;;;;;;;;;;10.25;62.76;95607.34;5149105;23;5851;-66
2023/03/08 10:43:39;;;;;;;;;;;;;;;10.29;62.76;95597.94;5148971;23;5730;-66
2023/03/08 10:45:42;;;;;;;;;;;;;;;10.29;62.88;95587.38;5149412;23;5893;-66
2023/03/08 10:47:54;;;;;;;;;;;;;;;10.34;62.80;95589.38;5148193;23;5727;-66
2023/03/08 10:50:14;;;;;;;;;;;;;;;10.36;63.05;95596.03;5149092;23;5786;-66
2023/03/08 10:52:22;;;;;;;;;;;;;;;10.40;62.62;95586.63;5148370;23;5809;-66
2023/03/08 10:54:28;;;;;;;;;;;;;;;10.44;62.75;95590.47;5149123;23;5738;-72
2023/03/08 10:56:37;;;;;;;;;;;;;;;10.49;62.85;95598.53;5149639;23;5735;-72
2023/03/08 10:58:40;;;;;;;;;;;;;;;10.48;63.17;95604.03;5146395;23;5794;-70
2023/03/08 11:00:44;;;;;;;;;;;;;;;10.49;62.96;95603.81;5148459;23;5865;-71
2023/03/08 11:02:48;;;;;;;;;;;;;;;10.53;62.96;95598.06;5148150;23;5814;-71
2023/03/08 11:04:51;;;;;;;;;;;;;;;10.56;62.72;95602.94;5149365;23;5795;-72
2023/03/08 11:06:55;;;;;;;;;;;;;;;10.57;62.94;95599.25;5149290;23;5817;-73
2023/03/08 11:08:59;;;;;;;;;;;;;;;10.60;63.04;95606.72;5151756;23;5814;-72
2023/03/08 11:11:07;;;;;;;;;;;;;;;10.60;63.10;95604.91;5149693;23;5929;-74
2023/03/08 11:13:24;;;;;;;;;;;;;;;10.63;63.30;95596.50;5149099;23;5738;-74
2023/03/08 11:15:29;;;;;;;;;;;;;;;10.66;63.30;95605.84;5148542;23;5738;-66
2023/03/08 11:17:38;;;;;;;;;;;;;;;10.69;63.14;95597.47;5146668;23;5735;-69
2023/03/08 11:20:09;;;;;;;;;;;;;;;10.72;63.14;95612.88;5149071;23;5714;-70
2023/03/08 11:22:22;;;;;;;;;;;;;;;10.71;62.98;95617.38;5148678;23;5719;-71
2023/03/08 11:24:39;;;;;;;;;;;;;;;10.72;63.16;95615.53;5149503;23;5719;-70
2023/03/08 11:26:52;;;;;;;;;;;;;;;10.73;62.90;95603.91;5149468;23;5751;-70
2023/03/08 11:29:11;;;;;;;;;;;;;;;10.74;63.07;95616.91;5149170;23;6353;-71
2023/03/08 11:31:23;;;;;;;;;;;;;;;10.77;62.99;95627.06;5150119;23;5734;-70
2023/03/08 11:33:44;;;;;;;;;;;;;;;10.77;63.18;95613.03;5149635;23;5837;-70
2023/03/08 11:35:53;;;;;;;;;;;;;;;10.75;63.34;95613.25;5149393;23;5735;-71
2023/03/08 11:38:02;;;;;;;;;;;;;;;10.76;63.29;95614.88;5149773;23;5747;-72
2023/03/08 11:40:19;;;;;;;;;;;;;;;10.78;63.18;95614.66;5149362;23;5766;-70
2023/03/08 11:42:35;;;;;;;;;;;;;;;10.82;63.23;95601.78;5148786;23;5719;-71
2023/03/08 11:45:03;;;;;;;;;;;;;;;10.84;62.85;95594.44;5148881;23;5628;-71
2023/03/08 11:47:37;;;;;;;;;;;;;;;10.87;63.32;95600.06;5149274;23;5648;-70
2023/03/08 11:49:54;;;;;;;;;;;;;;;10.91;63.02;95598.63;5148253;23;6823;-69
2023/03/08 11:52:07;;;;;;;;;;;;;;;10.90;63.25;95593.56;5149248;23;5976;-71
2023/03/08 11:54:19;;;;;;;;;;;;;;;10.91;62.94;95595.97;5149232;23;5730;-72
2023/03/08 11:56:37;;;;;;;;;;;;;;;10.94;62.98;95595.50;5149557;23;6433;-72
2023/03/08 11:58:46;;;;;;;;;;;;;;;10.96;63.31;95598.72;5149149;23;5722;-72
2023/03/08 12:00:55;;;;;;;;;;;;;;;11.01;63.21;95595.44;5144433;23;5750;-70
2023/03/08 12:03:03;;;;;;;;;;;;;;;11.02;63.11;95597.03;5146841;23;5809;-70
2023/03/08 12:05:12;;;;;;;;;;;;;;;11.04;62.74;95603.72;5149134;23;5735;-70
2023/03/08 12:07:21;;;;;;;;;;;;;;;11.04;63.30;95603.72;5149275;23;5723;-70
2023/03/08 12:09:30;;;;;;;;;;;;;;;11.06;63.04;95587.63;5147838;23;5718;-71
2023/03/08 12:11:40;;;;;;;;;;;;;;;11.06;62.92;95603.47;5149772;23;5779;-70
2023/03/08 12:13:48;;;;;;;;;;;;;;;11.06;63.03;95595.56;5148416;23;5730;-70
2023/03/08 12:15:55;;;;;;;;;;;;;;;11.08;63.14;95593.47;5148810;23;5761;-71
2023/03/08 12:18:07;;;;;;;;;;;;;;;11.09;63.16;95593.25;5149045;23;5728;-70
2023/03/08 12:20:13;;;;;;;;;;;;;;;11.11;63.00;95602.84;5146461;23;5667;-69
2023/03/08 12:22:29;;;;;;;;;;;;;;;11.09;62.92;95605.69;5149177;23;5730;-69
2023/03/08 12:24:43;;;;;;;;;;;;;;;11.10;63.08;95588.81;5148035;23;5778;-69
2023/03/08 12:26:51;;;;;;;;;;;;;;;11.12;63.12;95585.94;5147623;23;5442;-69
2023/03/08 12:29:01;;;;;;;;;;;;;;;11.14;63.23;95586.50;5149208;23;7712;-69
2023/03/08 12:31:18;;;;;;;;;;;;;;;11.15;63.05;95580.19;5147005;23;5730;-70
2023/03/08 12:33:31;;;;;;;;;;;;;;;11.19;62.96;95576.03;5149088;23;5731;-70
2023/03/08 12:35:37;;;;;;;;;;;;;;;11.21;63.10;95579.25;5149155;23;5731;-69
2023/03/08 12:37:40;;;;;;;;;;;;;;;11.21;62.81;95573.97;5149484;23;6286;-70
2023/03/08 12:39:54;;;;;;;;;;;;;;;11.23;62.76;95567.44;5148717;23;5771;-69
2023/03/08 12:42:00;;;;;;;;;;;;;;;11.25;63.15;95567.22;5148945;23;5656;-69
2023/03/08 12:44:07;;;;;;;;;;;;;;;11.26;62.72;95568.81;5149456;23;5718;-70
2023/03/08 12:46:11;;;;;;;;;;;;;;;11.24;63.22;95555.81;5148174;23;5713;-71
2023/03/08 12:48:19;;;;;;;;;;;;;;;11.27;62.96;95551.91;5120945;23;5770;-70
2023/03/08 12:50:24;;;;;;;;;;;;;;;11.29;62.92;95550.66;5147638;23;5786;-70
2023/03/08 12:52:33;;;;;;;;;;;;;;;11.27;63.09;95554.56;5148415;23;6487;-70
2023/03/08 12:54:37;;;;;;;;;;;;;;;11.26;63.13;95559.03;5148577;23;6383;-69
2023/03/08 12:56:52;;;;;;;;;;;;;;;11.28;63.05;95543.75;5148636;23;5734;-69
2023/03/08 12:58:58;;;;;;;;;;;;;;;11.30;62.85;95546.16;5147379;23;5846;-70
2023/03/08 13:01:06;;;;;;;;;;;;;;;11.33;62.68;95535.13;5148323;23;5843;-70
2023/03/08 13:03:26;;;;;;;;;;;;;;;11.33;62.96;95535.94;5145125;23;5814;-70
2023/03/08 13:05:32;;;;;;;;;;;;;;;11.35;62.65;95531.22;5147497;23;5727;-69
2023/03/08 13:07:40;;;;;;;;;;;;;;;11.37;62.89;95538.94;5148792;23;5729;-70
2023/03/08 13:09:53;;;;;;;;;;;;;;;11.36;62.85;95540.78;5148295;23;5876;-70
2023/03/08 13:12:01;;;;;;;;;;;;;;;11.36;62.60;95545.25;5147129;23;6923;-71
2023/03/08 13:14:21;;;;;;;;;;;;;;;11.34;62.55;95548.13;5145645;23;5636;-70
2023/03/08 13:16:35;;;;;;;;;;;;;;;11.34;62.97;95540.19;5147568;23;5715;-69
2023/03/08 13:18:38;;;;;;;;;;;;;;;11.32;62.70;95544.88;5147193;23;5730;-69
2023/03/08 13:20:56;;;;;;;;;;;;;;;11.32;62.93;95552.03;5146589;23;5759;-69
2023/03/08 13:23:08;;;;;;;;;;;;;;;11.32;62.93;95539.59;5147849;23;5727;-69
2023/03/08 13:25:22;;;;;;;;;;;;;;;11.35;63.17;95533.06;5148257;23;5640;-69
2023/03/08 13:27:38;;;;;;;;;;;;;;;11.36;63.17;95519.59;5148220;23;5727;-70
2023/03/08 13:29:43;;;;;;;;;;;;;;;11.35;63.11;95533.06;5148659;23;5747;-69
2023/03/08 13:31:48;;;;;;;;;;;;;;;11.38;62.69;95532.59;5148222;23;5719;-70
2023/03/08 13:33:53;;;;;;;;;;;;;;;11.41;62.69;95534.78;5148097;23;5754;-70
2023/03/08 13:35:58;;;;;;;;;;;;;;;11.41;62.82;95526.03;5148597;23;5720;-69
2023/03/08 13:38:01;;;;;;;;;;;;;;;11.41;63.04;95513.63;5148772;23;5727;-70
2023/03/08 13:40:15;;;;;;;;;;;;;;;11.41;63.15;95510.97;5148577;23;5782;-71
2023/03/08 13:42:23;;;;;;;;;;;;;;;11.42;63.08;95525.00;5148373;23;5817;-70
2023/03/08 13:44:27;;;;;;;;;;;;;;;11.42;62.96;95517.06;5148551;23;5710;-70
2023/03/08 13:46:30;;;;;;;;;;;;;;;11.38;63.04;95506.94;5148451;23;5734;-70
2023/03/08 13:48:36;;;;;;;;;;;;;;;11.37;63.34;95513.28;5147858;23;5830;-70
2023/03/08 13:50:44;;;;;;;;;;;;;;;11.37;63.18;95515.13;5147989;23;5715;-71
2023/03/08 13:52:47;;;;;;;;;;;;;;;11.38;63.08;95506.13;5148648;23;6338;-70
2023/03/08 13:54:53;;;;;;;;;;;;;;;11.40;63.21;95487.38;5148725;23;5709;-70
2023/03/08 13:56:56;;;;;;;;;;;;;;;11.42;63.41;95480.81;5148492;23;5785;-70
2023/03/08 13:59:00;;;;;;;;;;;;;;;11.38;63.27;95479.69;5148303;23;5648;-70
2023/03/08 14:01:10;;;;;;;;;;;;;;;11.37;63.34;95493.94;5148050;23;5814;-70
2023/03/08 14:03:20;;;;;;;;;;;;;;;11.40;63.38;95501.41;5146248;23;5730;-70
2023/03/08 14:05:26;;;;;;;;;;;;;;;11.42;63.44;95482.66;5148478;23;5734;-70
2023/03/08 14:07:31;;;;;;;;;;;;;;;11.43;63.71;95481.63;5148583;23;5672;-71
2023/03/08 14:09:34;;;;;;;;;;;;;;;11.42;63.26;95490.59;5148593;23;5782;-70
2023/03/08 14:11:40;;;;;;;;;;;;;;;11.38;63.75;95487.63;5149709;23;5655;-70
2023/03/08 14:13:46;;;;;;;;;;;;;;;11.40;63.51;95497.97;5150522;23;5648;-71
2023/03/08 14:15:52;;;;;;;;;;;;;;;11.40;63.64;95500.63;5148862;23;5768;-71
2023/03/08 14:17:56;;;;;;;;;;;;;;;11.39;63.50;95497.16;5149606;23;6374;-71
2023/03/08 14:20:01;;;;;;;;;;;;;;;11.39;63.67;95497.16;5149647;23;5810;-71
2023/03/08 14:22:12;;;;;;;;;;;;;;;11.34;63.86;95487.28;5150093;23;5719;-72
2023/03/08 14:24:20;;;;;;;;;;;;;;;11.34;63.74;95484.63;5150200;23;5781;-70
2023/03/08 14:26:26;;;;;;;;;;;;;;;11.37;63.72;95480.72;5149995;23;5738;-71
2023/03/08 14:28:37;;;;;;;;;;;;;;;11.37;63.93;95486.81;5150374;23;5730;-71
2023/03/08 14:30:47;;;;;;;;;;;;;;;11.38;63.75;95477.03;5149992;23;5734;-71
2023/03/08 14:33:19;;;;;;;;;;;;;;;11.41;63.82;95489.78;5149018;23;5727;-71
2023/03/08 14:35:36;;;;;;;;;;;;;;;11.44;63.87;95494.66;5149792;23;5727;-70
2023/03/08 14:37:44;;;;;;;;;;;;;;;11.43;63.80;95482.44;5150435;23;5738;-71
2023/03/08 14:39:49;;;;;;;;;;;;;;;11.44;63.88;95484.06;5149252;23;5735;-70
2023/03/08 14:41:54;;;;;;;;;;;;;;;11.43;63.89;95477.13;5149807;23;5077;-70
2023/03/08 14:43:57;;;;;;;;;;;;;;;11.43;63.83;95479.78;5149733;23;5760;-71
2023/03/08 14:46:02;;;;;;;;;;;;;;;11.44;63.98;95484.06;5146978;23;5643;-70
2023/03/08 14:48:23;;;;;;;;;;;;;;;11.45;64.25;95482.22;5149645;23;5735;-72
2023/03/08 14:50:29;;;;;;;;;;;;;;;11.45;63.80;95483.03;5148647;23;5794;-70
2023/03/08 14:52:36;;;;;;;;;;;;;;;11.47;63.98;95485.44;5150070;23;5726;-71
2023/03/08 14:54:40;;;;;;;;;;;;;;;11.47;64.14;95480.94;5149446;23;5726;-71
2023/03/08 14:56:44;;;;;;;;;;;;;;;11.47;64.05;95488.09;5150304;23;5742;-71
2023/03/08 14:58:49;;;;;;;;;;;;;;;11.45;63.96;95484.88;5148378;23;6480;-71
2023/03/08 15:00:55;;;;;;;;;;;;;;;11.44;64.27;95478.78;5149793;23;5719;-71
2023/03/08 15:02:59;;;;;;;;;;;;;;;11.45;64.24;95492.81;5149644;23;5726;-76
2023/03/08 15:05:02;;;;;;;;;;;;;;;11.44;64.36;95481.41;5146492;23;5731;-76
2023/03/08 15:07:06;;;;;;;;;;;;;;;11.38;64.17;95492.91;5144993;23;5775;-73
2023/03/08 15:09:09;;;;;;;;;;;;;;;11.37;64.55;95507.19;5147604;23;5636;-75
2023/03/08 15:11:13;;;;;;;;;;;;;;;11.34;64.69;95505.81;5147840;23;5740;-74
2023/03/08 15:13:19;;;;;;;;;;;;;;;11.35;64.55;95501.31;5147803;23;5087;-74
2023/03/08 15:15:22;;;;;;;;;;;;;;;11.35;64.49;95496.81;5148040;23;5735;-73
2023/03/08 15:17:25;;;;;;;;;;;;;;;11.33;64.52;95498.09;5147674;23;6337;-75
2023/03/08 15:19:28;;;;;;;;;;;;;;;11.33;64.86;95498.09;5148209;23;5645;-73
2023/03/08 15:21:31;;;;;;;;;;;;;;;11.32;64.97;95488.53;5147511;23;5735;-73
2023/03/08 15:23:36;;;;;;;;;;;;;;;11.34;64.98;95489.13;5147788;23;6402;-75
2023/03/08 15:25:39;;;;;;;;;;;;;;;11.35;65.18;95491.53;5147744;23;5732;-75
2023/03/08 15:27:44;;;;;;;;;;;;;;;11.37;65.28;95505.34;5120945;23;5671;-75
2023/03/08 15:29:50;;;;;;;;;;;;;;;11.40;65.35;95506.72;5148486;23;5822;-73
2023/03/08 15:31:54;;;;;;;;;;;;;;;11.41;65.31;95505.66;5148129;23;5743;-74
2023/03/08 15:33:57;;;;;;;;;;;;;;;11.39;65.12;95497.16;5146868;23;5810;-73
2023/03/08 15:36:00;;;;;;;;;;;;;;;11.38;65.33;95511.44;5146957;23;5716;-73
2023/03/08 15:38:03;;;;;;;;;;;;;;;11.34;65.43;95512.94;5147455;23;5814;-75
2023/03/08 15:40:11;;;;;;;;;;;;;;;11.32;65.63;95514.97;5147896;23;6432;-74
2023/03/08 15:42:14;;;;;;;;;;;;;;;11.34;65.72;95502.34;5147791;23;5738;-76
2023/03/08 15:44:18;;;;;;;;;;;;;;;11.32;65.91;95486.69;5147266;23;5722;-76
2023/03/08 15:46:21;;;;;;;;;;;;;;;11.31;65.65;95478.97;5148119;23;5798;-75
2023/03/08 15:48:24;;;;;;;;;;;;;;;11.33;65.68;95487.50;5147838;23;6481;-74
2023/03/08 15:50:28;;;;;;;;;;;;;;;11.34;66.03;95487.28;5148456;23;5823;-73
2023/03/08 15:52:32;;;;;;;;;;;;;;;11.35;66.02;95486.25;5148430;23;5917;-74
2023/03/08 15:54:35;;;;;;;;;;;;;;;11.36;66.10;95476.47;5148443;23;6393;-74
2023/03/08 15:56:38;;;;;;;;;;;;;;;11.36;66.02;95477.28;5147970;23;5826;-72
2023/03/08 15:58:41;;;;;;;;;;;;;;;11.40;66.34;95479.44;5147975;23;5795;-70
2023/03/08 16:00:45;;;;;;;;;;;;;;;11.40;66.34;95482.09;5146367;23;5743;-70
2023/03/08 16:02:50;;;;;;;;;;;;;;;11.39;66.25;95476.00;5147909;23;5818;-70
2023/03/08 16:04:54;;;;;;;;;;;;;;;11.42;66.34;95482.66;5147519;23;5817;-71
2023/03/08 16:06:57;;;;;;;;;;;;;;;11.43;66.22;95477.13;5147522;23;5842;-71
2023/03/08 16:09:00;;;;;;;;;;;;;;;11.45;66.09;95467.16;5147824;23;5740;-71
2023/03/08 16:11:06;;;;;;;;;;;;;;;11.47;66.21;95472.22;5147703;23;5814;-70
2023/03/08 16:13:09;;;;;;;;;;;;;;;11.48;66.12;95485.22;5147480;23;5817;-71
2023/03/08 16:15:12;;;;;;;;;;;;;;;11.50;66.22;95488.44;5148051;23;5730;-72
2023/03/08 16:17:18;;;;;;;;;;;;;;;11.48;66.14;95484.41;5147641;23;5707;-71
2023/03/08 16:19:23;;;;;;;;;;;;;;;11.48;66.38;95490.50;5147933;23;5825;-71
2023/03/08 16:21:26;;;;;;;;;;;;;;;11.48;66.38;95489.69;5147499;23;5772;-72
2023/03/08 16:23:29;;;;;;;;;;;;;;;11.49;66.29;95481.53;5147693;23;5731;-72
2023/03/08 16:25:32;;;;;;;;;;;;;;;11.50;66.43;95471.75;5147517;23;5873;-71
2023/03/08 16:27:35;;;;;;;;;;;;;;;11.50;66.68;95475.19;5147793;23;5822;-71
2023/03/08 16:29:40;;;;;;;;;;;;;;;11.51;66.17;95479.44;5145655;23;5063;-70
2023/03/08 16:31:43;;;;;;;;;;;;;;;11.51;66.59;95483.94;5147509;23;7725;-71
2023/03/08 16:33:47;;;;;;;;;;;;;;;11.51;66.54;95483.94;5146901;23;5814;-73
2023/03/08 16:35:51;;;;;;;;;;;;;;;11.53;66.43;95495.91;5147500;23;5825;-71
2023/03/08 16:37:54;;;;;;;;;;;;;;;11.53;66.61;95497.75;5147453;23;6366;-72
2023/03/08 16:40:00;;;;;;;;;;;;;;;11.53;66.54;95487.16;5147927;23;5874;-72
2023/03/08 16:42:04;;;;;;;;;;;;;;;11.51;66.60;95490.03;5147159;23;5813;-71
2023/03/08 16:44:16;;;;;;;;;;;;;;;11.51;66.64;95490.03;5144721;23;6457;-75
2023/03/08 16:46:21;;;;;;;;;;;;;;;11.52;66.31;95490.84;5147086;23;5833;-77
2023/03/08 16:48:26;;;;;;;;;;;;;;;11.49;66.67;95493.94;5147474;23;5805;-69
2023/03/08 16:50:32;;;;;;;;;;;;;;;11.47;66.55;95504.78;5146992;23;5818;-66
2023/03/08 16:52:35;;;;;;;;;;;;;;;11.47;66.87;95496.03;5146630;23;5755;-69
2023/03/08 16:54:38;;;;;;;;;;;;;;;11.46;66.39;95481.19;5146959;23;5727;-76
2023/03/08 16:56:43;;;;;;;;;;;;;;;11.44;66.78;95477.94;5147182;23;5826;-77
2023/03/08 16:58:46;;;;;;;;;;;;;;;11.46;66.79;95474.06;5147444;23;7021;-77
2023/03/08 17:00:49;;;;;;;;;;;;;;;11.45;66.78;95469.00;5149359;23;5296;-76
2023/03/08 17:02:52;;;;;;;;;;;;;;;11.43;66.88;95469.19;5151380;23;8358;-76
2023/03/08 17:04:55;;;;;;;;;;;;;;;11.45;66.58;95469.81;5150165;23;5724;-78
2023/03/08 17:06:59;;;;;;;;;;;;;;;11.47;67.00;95477.50;5146792;23;5732;-76
2023/03/08 17:09:03;;;;;;;;;;;;;;;11.49;66.92;95459.53;5147081;23;5739;-75